createdAt,value
2018-11-25T00:03:33.827Z,67.05
2018-11-25T00:07:37.889Z,66.79
2018-11-25T00:11:41.902Z,66.83
2018-11-25T00:15:45.931Z,66.71
2018-11-25T00:19:49.946Z,66.42
2018-11-25T00:23:53.881Z,66.35
2018-11-25T00:27:57.821Z,66.62
2018-11-25T00:32:01.802Z,66.06
2018-11-25T00:36:06.078Z,66.04
2018-11-25T00:40:13.967Z,66.31
2018-11-25T00:44:17.953Z,66.73
2018-11-25T00:48:21.853Z,66.83
2018-11-25T00:52:25.788Z,66.97
2018-11-25T00:56:29.754Z,67.00
2018-11-25T01:00:33.733Z,67.00
2018-11-25T01:04:37.782Z,67.03
2018-11-25T01:08:41.761Z,67.27
2018-11-25T01:12:45.946Z,67.32
2018-11-25T01:16:49.941Z,67.38
2018-11-25T01:20:54.132Z,67.12
2018-11-25T01:24:58.055Z,67.14
2018-11-25T01:29:01.994Z,67.19
2018-11-25T01:33:06.151Z,67.20
2018-11-25T01:37:10.081Z,67.51
2018-11-25T01:41:14.038Z,67.11
2018-11-25T01:45:18.422Z,67.44
2018-11-25T01:49:22.647Z,67.26
2018-11-25T01:53:26.335Z,67.21
2018-11-25T01:57:30.335Z,66.84
2018-11-25T02:01:34.319Z,67.11
2018-11-25T02:05:38.305Z,67.43
2018-11-25T02:09:42.337Z,67.25
2018-11-25T02:13:46.341Z,67.24
2018-11-25T02:17:50.371Z,67.15
2018-11-25T02:21:54.289Z,66.94
2018-11-25T02:25:58.317Z,67.34
2018-11-25T02:30:02.345Z,67.22
2018-11-25T02:34:06.582Z,67.38
2018-11-25T02:38:10.611Z,67.51
2018-11-25T02:42:14.522Z,67.17
2018-11-25T02:46:18.525Z,67.43
2018-11-25T02:50:23.702Z,67.43
2018-11-25T02:54:27.807Z,67.47
2018-11-25T02:58:31.866Z,67.90
2018-11-25T03:02:35.862Z,67.56
2018-11-25T03:06:39.927Z,67.52
2018-11-25T03:10:43.954Z,67.45
2018-11-25T03:14:47.946Z,67.54
2018-11-25T03:18:52.006Z,67.63
2018-11-25T03:22:55.969Z,67.54
2018-11-25T03:27:00.088Z,67.56
2018-11-25T03:31:04.062Z,67.65
2018-11-25T03:35:09.316Z,67.45
2018-11-25T03:39:13.395Z,67.66
2018-11-25T03:43:17.405Z,67.80
2018-11-25T03:47:21.356Z,67.25
2018-11-25T03:51:25.409Z,67.41
2018-11-25T03:55:29.451Z,67.49
2018-11-25T03:59:33.431Z,67.26
2018-11-25T04:03:37.453Z,67.47
2018-11-25T04:07:41.466Z,67.60
2018-11-25T04:11:46.485Z,67.78
2018-11-25T04:15:49.509Z,67.52
2018-11-25T04:19:53.504Z,68.05
2018-11-25T04:23:57.411Z,67.65
2018-11-25T04:28:01.463Z,67.99
2018-11-25T04:32:05.412Z,67.86
2018-11-25T04:36:09.374Z,68.02
2018-11-25T04:40:16.107Z,68.18
2018-11-25T04:44:20.047Z,68.04
2018-11-25T04:48:24.067Z,68.00
2018-11-25T04:52:28.067Z,67.93
2018-11-25T04:56:32.092Z,68.11
2018-11-25T05:00:36.123Z,68.02
2018-11-25T05:04:40.214Z,67.98
2018-11-25T05:08:44.343Z,67.78
2018-11-25T05:12:48.398Z,67.90
2018-11-25T05:16:52.343Z,67.71
2018-11-25T05:20:56.291Z,68.04
2018-11-25T05:25:00.214Z,68.10
2018-11-25T05:29:04.187Z,68.24
2018-11-25T05:33:08.127Z,68.16
2018-11-25T05:37:12.074Z,68.02
2018-11-25T05:41:16.023Z,68.04
2018-11-25T05:45:20.442Z,68.10
2018-11-25T05:49:24.485Z,68.29
2018-11-25T05:53:28.511Z,68.13
2018-11-25T05:57:32.538Z,68.11
2018-11-25T06:01:36.563Z,68.01
2018-11-25T06:05:40.556Z,67.83
2018-11-25T06:09:44.599Z,67.80
2018-11-25T06:13:48.652Z,67.85
2018-11-25T06:17:52.659Z,67.82
2018-11-25T06:21:56.598Z,67.88
2018-11-25T06:26:00.563Z,67.87
2018-11-25T06:30:05.237Z,67.81
2018-11-25T06:34:09.193Z,67.72
2018-11-25T06:38:13.177Z,67.67
2018-11-25T06:42:17.215Z,67.64
2018-11-25T06:46:21.157Z,67.91
2018-11-25T06:50:25.129Z,67.62
2018-11-25T06:54:29.175Z,67.68
2018-11-25T06:58:33.188Z,67.57
2018-11-25T07:02:37.209Z,67.79
2018-11-25T07:06:41.224Z,67.50
2018-11-25T07:10:45.227Z,68.01
2018-11-25T07:14:49.246Z,67.79
2018-11-25T07:18:53.219Z,67.51
2018-11-25T07:22:57.188Z,67.91
2018-11-25T07:27:01.265Z,67.75
2018-11-25T07:31:06.232Z,67.87
2018-11-25T07:35:10.205Z,67.75
2018-11-25T07:39:15.041Z,67.63
2018-11-25T07:43:18.987Z,67.69
2018-11-25T07:47:22.982Z,67.93
2018-11-25T07:51:26.980Z,67.67
2018-11-25T07:55:31.030Z,67.82
2018-11-25T07:59:35.046Z,67.51
2018-11-25T08:03:39.096Z,67.76
2018-11-25T08:07:43.088Z,67.56
2018-11-25T08:13:11.539Z,67.69
2018-11-25T08:17:15.519Z,67.67
2018-11-25T08:21:19.520Z,67.60
2018-11-25T08:25:23.493Z,67.66
2018-11-25T08:29:27.513Z,67.76
2018-11-25T08:33:31.463Z,67.61
2018-11-25T08:37:35.423Z,67.53
2018-11-25T08:41:39.457Z,67.29
2018-11-25T08:45:43.447Z,67.36
2018-11-25T08:49:47.504Z,67.60
2018-11-25T08:53:51.519Z,67.13
2018-11-25T08:57:55.678Z,66.93
2018-11-25T09:01:59.644Z,67.41
2018-11-25T09:06:03.687Z,67.07
2018-11-25T09:10:14.739Z,66.75
2018-11-25T09:14:18.798Z,66.54
2018-11-25T09:18:22.819Z,67.16
2018-11-25T09:22:26.767Z,66.98
2018-11-25T09:26:30.732Z,66.77
2018-11-25T09:30:34.747Z,66.18
2018-11-25T09:34:38.688Z,66.55
2018-11-25T09:38:42.743Z,66.60
2018-11-25T09:42:46.680Z,66.71
2018-11-25T09:46:50.635Z,66.05
2018-11-25T09:50:54.593Z,66.02
2018-11-25T09:54:58.619Z,66.32
2018-11-25T09:59:02.641Z,65.91
2018-11-25T10:03:07.784Z,65.95
2018-11-25T10:07:11.827Z,65.97
2018-11-25T10:11:15.908Z,66.26
2018-11-25T10:15:21.868Z,66.15
2018-11-25T10:19:26.091Z,66.17
2018-11-25T10:23:30.132Z,65.97
2018-11-25T10:27:34.099Z,66.21
2018-11-25T10:31:38.071Z,66.27
2018-11-25T10:35:42.109Z,66.20
2018-11-25T10:39:46.065Z,65.80
2018-11-25T10:43:50.036Z,65.84
2018-11-25T10:47:54.211Z,65.99
2018-11-25T10:51:58.204Z,65.69
2018-11-25T10:56:02.223Z,65.68
2018-11-25T11:00:19.342Z,65.41
2018-11-25T11:04:28.670Z,65.39
2018-11-25T11:08:32.787Z,65.35
2018-11-25T11:12:36.826Z,65.39
2018-11-25T11:16:40.920Z,65.57
2018-11-25T11:20:44.870Z,65.16
2018-11-25T11:24:48.860Z,65.01
2018-11-25T11:28:52.888Z,64.67
2018-11-25T11:32:56.819Z,64.40
2018-11-25T11:37:00.777Z,64.55
2018-11-25T11:41:04.759Z,65.05
2018-11-25T11:45:10.883Z,64.72
2018-11-25T11:49:14.975Z,64.91
2018-11-25T11:53:19.036Z,64.51
2018-11-25T11:57:23.048Z,64.48
2018-11-25T12:01:27.064Z,64.78
2018-11-25T12:05:31.095Z,64.95
2018-11-25T12:09:35.089Z,64.54
2018-11-25T12:13:39.138Z,64.96
2018-11-25T12:17:43.154Z,65.12
2018-11-25T12:21:47.189Z,65.23
2018-11-25T12:25:51.142Z,65.38
2018-11-25T12:29:55.047Z,65.28
2018-11-25T12:33:59.119Z,65.55
2018-11-25T12:38:03.707Z,65.42
2018-11-25T12:42:07.691Z,65.82
2018-11-25T12:46:11.729Z,66.22
2018-11-25T12:50:17.787Z,65.97
2018-11-25T12:54:21.740Z,66.07
2018-11-25T12:58:25.746Z,65.80
2018-11-25T13:02:29.793Z,65.60
2018-11-25T13:06:33.819Z,65.72
2018-11-25T13:10:37.794Z,65.89
2018-11-25T13:14:41.806Z,65.55
2018-11-25T13:18:45.834Z,65.83
2018-11-25T13:22:49.774Z,65.45
2018-11-25T13:26:53.771Z,65.91
2018-11-25T13:30:57.793Z,66.11
2018-11-25T13:35:01.739Z,65.98
2018-11-25T13:39:08.914Z,65.87
2018-11-25T13:43:12.963Z,65.92
2018-11-25T13:47:16.992Z,66.01
2018-11-25T13:51:21.030Z,66.37
2018-11-25T13:55:27.251Z,66.05
2018-11-25T13:59:31.392Z,66.87
2018-11-25T14:03:38.395Z,67.04
2018-11-25T14:07:42.370Z,67.11
2018-11-25T14:11:46.351Z,67.31
2018-11-25T14:15:50.435Z,67.27
2018-11-25T14:19:54.389Z,66.92
2018-11-25T14:23:58.503Z,67.44
2018-11-25T14:28:06.032Z,67.59
2018-11-25T14:32:10.111Z,67.39
2018-11-25T14:36:14.160Z,67.22
2018-11-25T14:40:19.267Z,67.49
2018-11-25T14:44:23.224Z,67.27
2018-11-25T14:48:27.324Z,67.27
2018-11-25T14:52:31.411Z,67.69
2018-11-25T14:56:35.473Z,67.22
2018-11-25T15:00:39.543Z,67.40
2018-11-25T15:04:43.588Z,67.47
2018-11-25T15:08:47.577Z,67.73
2018-11-25T15:12:51.775Z,67.26
2018-11-25T15:16:55.833Z,67.20
2018-11-25T15:20:59.818Z,67.38
2018-11-25T15:25:03.842Z,67.34
2018-11-25T15:29:07.808Z,67.32
2018-11-25T15:33:11.815Z,67.47
2018-11-25T15:37:15.819Z,67.58
2018-11-25T15:41:19.735Z,67.20
2018-11-25T15:45:23.795Z,67.31
2018-11-25T15:49:27.764Z,67.40
2018-11-25T15:53:31.832Z,66.96
2018-11-25T15:57:35.843Z,67.25
2018-11-25T16:01:39.938Z,67.19
2018-11-25T16:05:45.839Z,66.96
2018-11-25T16:09:49.911Z,67.22
2018-11-25T16:13:53.918Z,67.10
2018-11-25T16:17:58.016Z,66.99
2018-11-25T16:22:01.993Z,66.97
2018-11-25T16:26:10.099Z,67.47
2018-11-25T16:30:14.509Z,66.76
2018-11-25T16:34:18.468Z,66.92
2018-11-25T16:38:22.575Z,66.42
2018-11-25T16:42:26.499Z,66.79
2018-11-25T16:46:30.707Z,66.89
2018-11-25T16:50:34.998Z,66.72
2018-11-25T16:54:39.054Z,66.32
2018-11-25T16:58:43.058Z,66.15
2018-11-25T17:02:47.037Z,66.31
2018-11-25T17:06:52.244Z,66.61
2018-11-25T17:10:56.272Z,66.47
2018-11-25T17:15:00.326Z,66.35
2018-11-25T17:19:04.332Z,66.21
2018-11-25T17:23:09.011Z,66.28
2018-11-25T17:27:13.038Z,66.31
2018-11-25T17:31:17.088Z,66.40
2018-11-25T17:35:27.708Z,66.28
2018-11-25T17:39:31.696Z,66.69
2018-11-25T17:43:35.622Z,66.41
2018-11-25T17:47:39.707Z,66.45
2018-11-25T17:51:43.820Z,66.63
2018-11-25T17:55:47.881Z,66.37
2018-11-25T17:59:51.947Z,66.32
2018-11-25T18:03:56.077Z,66.15
2018-11-25T18:08:00.233Z,66.25
2018-11-25T18:12:04.251Z,66.34
2018-11-25T18:16:10.065Z,66.24
2018-11-25T18:20:14.047Z,66.53
2018-11-25T18:24:18.024Z,66.67
2018-11-25T18:28:22.106Z,66.71
2018-11-25T18:32:26.092Z,66.24
2018-11-25T18:36:30.131Z,66.59
2018-11-25T18:40:34.187Z,66.85
2018-11-25T18:44:38.254Z,66.44
2018-11-25T18:48:44.671Z,66.83
2018-11-25T18:52:51.259Z,66.47
2018-11-25T18:56:55.313Z,66.89
2018-11-25T19:01:24.528Z,66.72
2018-11-25T19:05:28.665Z,66.43
2018-11-25T19:09:32.792Z,66.23
2018-11-25T19:13:36.876Z,66.50
2018-11-25T19:17:40.912Z,66.48
2018-11-25T19:21:44.887Z,66.70
2018-11-25T19:25:48.844Z,66.62
2018-11-25T19:29:52.888Z,66.65
2018-11-25T19:33:56.879Z,66.35
2018-11-25T19:38:00.951Z,66.81
2018-11-25T19:42:05.095Z,66.45
2018-11-25T19:46:09.050Z,66.50
2018-11-25T19:50:22.625Z,66.88
2018-11-25T19:54:26.659Z,66.59
2018-11-25T19:58:30.740Z,66.94
2018-11-25T20:02:34.698Z,66.42
2018-11-25T20:06:38.776Z,66.62
2018-11-25T20:10:42.809Z,66.66
2018-11-25T20:14:46.832Z,67.12
2018-11-25T20:18:50.861Z,66.85
2018-11-25T20:22:55.214Z,67.06
2018-11-25T20:27:04.371Z,67.02
2018-11-25T20:31:08.364Z,67.23
2018-11-25T20:35:12.436Z,67.03
2018-11-25T20:39:22.003Z,66.93
2018-11-25T20:43:26.099Z,66.70
2018-11-25T20:47:30.138Z,67.16
2018-11-25T20:51:39.643Z,66.33
2018-11-25T20:55:43.682Z,66.85
2018-11-25T20:59:47.764Z,66.66
2018-11-25T21:03:51.788Z,66.99
2018-11-25T21:07:55.807Z,66.76
2018-11-25T21:11:59.845Z,66.96
2018-11-25T21:16:03.988Z,66.87
2018-11-25T21:20:13.257Z,66.55
2018-11-25T21:24:17.328Z,66.87
2018-11-25T21:28:21.344Z,66.62
2018-11-25T21:32:25.350Z,66.88
2018-11-25T21:41:04.040Z,66.68
2018-11-25T21:45:10.543Z,66.75
2018-11-25T21:49:14.592Z,66.91
2018-11-25T21:53:18.674Z,67.36
2018-11-25T21:57:22.763Z,66.59
2018-11-25T22:01:26.871Z,66.55
2018-11-25T22:05:30.951Z,66.84
2018-11-25T22:09:35.020Z,66.83
2018-11-25T22:13:39.078Z,66.92
2018-11-25T22:17:43.135Z,66.93
2018-11-25T22:21:47.122Z,66.71
2018-11-25T22:25:51.209Z,66.78
2018-11-25T22:29:55.310Z,66.95
2018-11-25T22:33:59.313Z,67.12
2018-11-25T22:38:03.341Z,66.97
2018-11-25T22:42:07.366Z,66.98
2018-11-25T22:46:11.343Z,67.22
2018-11-25T22:50:17.539Z,66.75
2018-11-25T22:54:21.559Z,67.10
2018-11-25T22:58:25.551Z,66.88
2018-11-25T23:02:29.634Z,67.06
2018-11-25T23:06:45.077Z,66.84
2018-11-25T23:10:49.137Z,66.97
2018-11-25T23:14:53.358Z,67.01
2018-11-25T23:18:57.340Z,67.18
2018-11-25T23:23:01.309Z,67.21
2018-11-25T23:27:05.522Z,67.01
2018-11-25T23:31:09.505Z,67.14
2018-11-25T23:35:18.694Z,66.92
2018-11-25T23:39:22.671Z,67.03
2018-11-25T23:43:26.656Z,67.21
2018-11-25T23:47:30.690Z,67.23
2018-11-25T23:51:34.701Z,67.28
2018-11-25T23:55:38.758Z,67.32
2018-11-25T23:59:42.837Z,67.04
